Time;durP1;ratioP1;P1;durP2;ratioP2;P2;SDS_P1;SDS_P2;PMS_P1;PMS_P2;Temp;Humidity;BMP_temperature;BMP_pressure;BME280_temperature;BME280_humidity;BME280_pressure;Samples;Min_cycle;Max_cycle;Signal;HPM_P1;HPM_P2
2023/07/10 00:01:12;;;;;;;6.05;2.67;;;23.10;79.00;;;;;;5074350;28;20048;-70
2023/07/10 00:03:37;;;;;;;5.18;2.38;;;23.10;79.10;;;;;;5067146;28;20115;-66
2023/07/10 00:06:05;;;;;;;2.42;2.13;;;23.10;79.10;;;;;;5074303;28;20136;-70
2023/07/10 00:08:30;;;;;;;4.22;2.05;;;23.10;79.20;;;;;;5071084;28;20016;-66
2023/07/10 00:10:59;;;;;;;5.25;2.55;;;23.10;79.10;;;;;;5075112;28;20046;-69
2023/07/10 00:13:24;;;;;;;3.72;1.85;;;23.10;79.00;;;;;;5071148;28;20035;-70
2023/07/10 00:15:52;;;;;;;3.72;2.50;;;23.10;79.00;;;;;;5076684;28;20036;-66
2023/07/10 00:18:20;;;;;;;4.47;3.33;;;23.10;79.00;;;;;;5069110;28;20029;-70
2023/07/10 00:20:47;;;;;;;2.15;1.65;;;23.00;79.10;;;;;;5076630;28;20368;-65
2023/07/10 00:23:16;;;;;;;2.65;2.15;;;23.00;79.10;;;;;;5076223;28;20028;-65
2023/07/10 00:25:42;;;;;;;2.55;2.33;;;23.10;79.00;;;;;;5069981;28;20427;-69
2023/07/10 00:28:26;;;;;;;2.97;2.17;;;23.10;78.90;;;;;;5074827;28;20024;-65
2023/07/10 00:30:52;;;;;;;3.95;2.03;;;23.10;78.90;;;;;;5069822;28;20190;-65
2023/07/10 00:33:19;;;;;;;2.10;1.88;;;23.00;79.00;;;;;;5071964;28;20143;-70
2023/07/10 00:35:46;;;;;;;4.45;2.45;;;23.00;78.90;;;;;;5076169;28;20060;-66
2023/07/10 00:38:16;;;;;;;3.17;2.05;;;23.00;79.00;;;;;;5073753;28;20032;-65
2023/07/10 00:40:45;;;;;;;2.05;1.80;;;23.00;79.20;;;;;;5070856;28;20067;-65
2023/07/10 00:43:28;;;;;;;3.92;2.00;;;23.00;79.20;;;;;;5073573;28;20391;-70
2023/07/10 00:45:58;;;;;;;4.50;2.13;;;22.90;79.10;;;;;;5065160;28;20123;-69
2023/07/10 00:48:45;;;;;;;2.47;1.60;;;22.90;79.10;;;;;;5076864;28;20036;-69
2023/07/10 00:51:37;;;;;;;2.58;1.88;;;22.90;79.10;;;;;;5075025;28;20367;-65
2023/07/10 00:54:04;;;;;;;3.00;1.88;;;23.00;79.10;;;;;;5070281;28;20074;-69
2023/07/10 00:56:38;;;;;;;8.73;1.95;;;22.90;79.10;;;;;;5072779;28;20461;-65
2023/07/10 00:59:22;;;;;;;2.83;1.75;;;22.90;78.90;;;;;;5074670;28;20032;-65
2023/07/10 01:02:12;;;;;;;2.63;1.90;;;23.00;78.90;;;;;;5073900;28;20090;-65
2023/07/10 01:04:41;;;;;;;2.05;1.70;;;22.90;78.80;;;;;;5074182;28;20371;-69
2023/07/10 01:07:10;;;;;;;4.70;2.08;;;22.90;78.80;;;;;;5082186;28;20044;-65
2023/07/10 01:09:36;;;;;;;4.68;2.38;;;22.90;78.80;;;;;;5081244;28;20103;-66
2023/07/10 01:12:03;;;;;;;3.13;2.28;;;22.80;78.70;;;;;;5073225;28;20028;-69
2023/07/10 01:14:34;;;;;;;2.35;1.88;;;22.80;78.80;;;;;;5078079;28;20104;-71
2023/07/10 01:17:04;;;;;;;2.25;1.98;;;22.80;78.90;;;;;;5078928;28;20032;-71
2023/07/10 01:19:30;;;;;;;5.00;2.20;;;22.70;78.80;;;;;;5073048;28;20415;-71
2023/07/10 01:21:56;;;;;;;3.58;2.05;;;22.80;78.80;;;;;;5075182;28;20420;-71
2023/07/10 01:24:22;;;;;;;2.38;2.17;;;22.80;79.40;;;;;;5076972;28;20024;-67
2023/07/10 01:26:48;;;;;;;5.60;2.38;;;22.80;78.90;;;;;;5043363;28;20383;-67
2023/07/10 01:29:24;;;;;;;3.30;2.17;;;22.70;78.90;;;;;;5080950;28;20119;-69
2023/07/10 01:31:54;;;;;;;2.47;1.95;;;22.70;79.20;;;;;;5069268;28;20025;-71
2023/07/10 01:34:23;;;;;;;3.05;1.95;;;22.60;79.20;;;;;;5070935;28;20028;-67
2023/07/10 01:36:50;;;;;;;3.95;1.67;;;22.60;79.20;;;;;;5078759;28;20031;-71
2023/07/10 01:39:15;;;;;;;3.15;1.40;;;22.60;79.20;;;;;;5075906;28;20115;-71
2023/07/10 01:41:43;;;;;;;2.95;1.95;;;22.50;79.20;;;;;;5071010;28;20570;-71
2023/07/10 01:44:33;;;;;;;3.13;2.00;;;22.50;79.30;;;;;;5078041;28;20021;-70
2023/07/10 01:47:01;;;;;;;2.95;1.70;;;22.50;79.30;;;;;;5077609;28;20170;-67
2023/07/10 01:49:40;;;;;;;2.40;1.95;;;22.40;79.40;;;;;;5075712;28;20061;-71
2023/07/10 01:52:09;;;;;;;2.67;1.77;;;22.40;79.40;;;;;;5075450;28;20035;-67
2023/07/10 01:54:35;;;;;;;2.25;1.80;;;22.40;79.40;;;;;;5069963;28;20033;-71
2023/07/10 01:57:02;;;;;;;2.28;1.83;;;22.40;79.40;;;;;;5076451;28;20356;-67
2023/07/10 01:59:28;;;;;;;1.85;1.38;;;22.40;79.30;;;;;;5077582;28;20075;-71
2023/07/10 02:01:55;;;;;;;1.95;1.70;;;22.40;79.30;;;;;;5071544;28;20052;-71
2023/07/10 02:04:22;;;;;;;2.42;1.77;;;22.40;79.30;;;;;;5076179;28;20036;-70
2023/07/10 02:06:48;;;;;;;2.78;1.40;;;22.40;79.20;;;;;;5065679;28;20043;-71
2023/07/10 02:09:13;;;;;;;3.30;1.88;;;22.40;79.10;;;;;;5070736;28;20033;-71
2023/07/10 02:11:39;;;;;;;3.05;2.15;;;22.40;79.10;;;;;;5079541;28;20560;-70
2023/07/10 02:14:06;;;;;;;2.63;1.80;;;22.40;79.10;;;;;;5069504;28;20029;-70
2023/07/10 02:16:33;;;;;;;3.78;1.98;;;22.40;79.20;;;;;;5071894;28;20047;-67
2023/07/10 02:18:59;;;;;;;2.38;1.85;;;22.40;79.20;;;;;;5072273;28;20109;-71
2023/07/10 02:21:25;;;;;;;2.25;1.65;;;22.40;79.10;;;;;;5075269;28;20028;-67
2023/07/10 02:23:50;;;;;;;5.18;1.52;;;22.40;79.10;;;;;;5073954;28;20033;-67
2023/07/10 02:26:17;;;;;;;7.47;1.60;;;22.40;78.90;;;;;;5080085;28;20040;-71
2023/07/10 02:28:43;;;;;;;2.63;1.48;;;22.50;78.90;;;;;;5069742;28;20089;-67
2023/07/10 02:31:09;;;;;;;1.70;1.60;;;22.50;78.70;;;;;;5074208;28;20044;-67
2023/07/10 02:33:35;;;;;;;2.20;1.67;;;22.50;78.70;;;;;;5072230;28;20376;-71
2023/07/10 02:36:02;;;;;;;2.25;1.58;;;22.50;78.80;;;;;;5076963;28;20056;-66
2023/07/10 02:38:28;;;;;;;2.53;1.60;;;22.40;78.80;;;;;;5074458;28;20429;-67
2023/07/10 02:40:54;;;;;;;2.28;1.73;;;22.40;78.80;;;;;;5068378;28;20024;-67
2023/07/10 02:43:20;;;;;;;3.40;1.48;;;22.40;78.80;;;;;;5069886;28;20627;-67
2023/07/10 02:45:46;;;;;;;5.28;2.00;;;22.30;78.80;;;;;;5074972;28;20027;-68
2023/07/10 02:48:11;;;;;;;1.40;1.30;;;22.30;78.90;;;;;;5074166;28;20479;-71
2023/07/10 02:50:37;;;;;;;3.55;2.45;;;22.30;78.80;;;;;;5074757;28;20371;-67
2023/07/10 02:53:03;;;;;;;2.00;1.60;;;22.30;78.80;;;;;;5075244;28;20074;-70
2023/07/10 02:55:28;;;;;;;1.85;1.55;;;22.30;78.80;;;;;;5077874;28;20093;-70
2023/07/10 02:57:54;;;;;;;2.38;1.65;;;22.30;78.70;;;;;;5073706;28;20028;-71
2023/07/10 03:00:20;;;;;;;2.60;1.52;;;22.30;78.60;;;;;;5072853;28;20143;-70
2023/07/10 03:02:45;;;;;;;2.22;1.50;;;22.30;78.60;;;;;;5075435;28;20427;-67
2023/07/10 03:05:11;;;;;;;3.08;1.48;;;22.30;78.50;;;;;;5071303;28;20032;-66
2023/07/10 03:07:37;;;;;;;1.85;1.63;;;22.20;78.50;;;;;;5080989;28;20131;-67
2023/07/10 03:10:03;;;;;;;1.95;1.38;;;22.20;78.50;;;;;;5072041;28;20038;-70
2023/07/10 03:12:28;;;;;;;2.00;1.48;;;22.10;78.50;;;;;;5074448;28;20028;-71
2023/07/10 03:14:54;;;;;;;2.10;1.33;;;22.20;78.60;;;;;;5067707;28;20034;-67
2023/07/10 03:17:20;;;;;;;1.45;1.27;;;22.20;78.50;;;;;;5068320;28;20115;-68
2023/07/10 03:19:47;;;;;;;1.05;0.95;;;22.20;78.40;;;;;;5075878;28;20052;-67
2023/07/10 03:22:12;;;;;;;1.20;1.10;;;22.20;78.30;;;;;;5080713;28;20082;-72
2023/07/10 03:24:38;;;;;;;1.77;1.10;;;22.20;78.20;;;;;;5057043;28;20463;-72
2023/07/10 03:27:04;;;;;;;1.42;1.10;;;22.20;78.00;;;;;;5080824;28;20042;-67
2023/07/10 03:29:30;;;;;;;1.45;1.10;;;22.10;77.90;;;;;;5072076;28;20034;-66
2023/07/10 03:31:56;;;;;;;1.45;1.13;;;22.10;77.90;;;;;;5069206;28;20028;-65
2023/07/10 03:34:21;;;;;;;1.02;0.70;;;22.10;77.80;;;;;;5076661;28;20063;-71
2023/07/10 03:36:50;;;;;;;1.30;1.02;;;22.00;77.50;;;;;;5052187;28;20028;-72
2023/07/10 03:39:16;;;;;;;0.98;0.70;;;22.00;77.40;;;;;;5053490;28;20032;-70
2023/07/10 03:41:41;;;;;;;1.00;0.70;;;22.00;77.40;;;;;;5073270;28;20407;-71
2023/07/10 03:44:09;;;;;;;0.70;0.70;;;21.90;77.20;;;;;;5072523;28;20033;-73
2023/07/10 03:46:35;;;;;;;0.82;0.80;;;21.90;77.10;;;;;;5076530;28;20051;-74
2023/07/10 03:49:01;;;;;;;1.27;1.17;;;21.90;76.90;;;;;;5071957;28;20060;-72
2023/07/10 03:51:27;;;;;;;0.63;0.63;;;21.90;76.40;;;;;;5069752;28;20024;-65
2023/07/10 03:53:52;;;;;;;2.55;0.80;;;21.90;77.00;;;;;;5073410;28;20077;-66
2023/07/10 03:56:18;;;;;;;1.30;0.77;;;21.90;76.40;;;;;;5067208;28;20048;-73
2023/07/10 03:58:45;;;;;;;1.55;1.13;;;21.80;75.90;;;;;;5050852;28;20548;-65
2023/07/10 04:01:13;;;;;;;2.10;0.60;;;21.70;76.10;;;;;;5067957;28;20057;-73
2023/07/10 04:03:39;;;;;;;1.27;1.08;;;21.70;76.20;;;;;;5067777;28;20476;-67
2023/07/10 04:06:07;;;;;;;1.05;0.88;;;21.70;76.10;;;;;;5068884;28;20029;-71
2023/07/10 04:08:37;;;;;;;0.85;0.75;;;21.70;76.10;;;;;;5073641;28;20037;-71
2023/07/10 04:11:22;;;;;;;3.22;0.90;;;21.70;76.00;;;;;;5066604;28;20470;-72
2023/07/10 04:13:49;;;;;;;1.35;1.05;;;21.70;76.10;;;;;;5072561;28;20386;-68
2023/07/10 04:16:18;;;;;;;8.02;1.00;;;21.70;76.10;;;;;;5070841;28;20111;-72
2023/07/10 04:18:46;;;;;;;2.53;0.95;;;21.70;75.90;;;;;;5067428;28;20028;-73
2023/07/10 04:21:19;;;;;;;1.30;0.90;;;21.70;75.90;;;;;;5073202;28;20113;-65
2023/07/10 04:23:44;;;;;;;2.40;1.27;;;21.70;75.90;;;;;;5075137;28;20024;-65
2023/07/10 04:26:21;;;;;;;3.42;1.08;;;21.70;75.90;;;;;;5068842;28;20382;-64
2023/07/10 04:28:49;;;;;;;0.88;0.88;;;21.70;75.70;;;;;;5071409;28;20190;-64
2023/07/10 04:31:16;;;;;;;2.70;1.60;;;21.60;75.70;;;;;;5074201;28;20032;-65
2023/07/10 04:33:42;;;;;;;1.02;0.80;;;21.60;75.80;;;;;;5069854;28;20041;-64
2023/07/10 04:36:08;;;;;;;1.10;1.00;;;21.60;75.80;;;;;;5073819;28;20053;-64
2023/07/10 04:38:34;;;;;;;1.15;0.98;;;21.50;75.70;;;;;;5076337;28;20042;-72
2023/07/10 04:41:02;;;;;;;1.88;0.80;;;21.60;75.70;;;;;;5067680;28;20491;-72
2023/07/10 04:43:33;;;;;;;1.33;0.93;;;21.60;75.60;;;;;;5072584;28;20025;-72
2023/07/10 04:46:01;;;;;;;2.58;0.60;;;21.60;75.40;;;;;;5072577;28;20032;-72
2023/07/10 04:48:27;;;;;;;3.50;1.50;;;21.60;75.30;;;;;;5056499;28;20117;-64
2023/07/10 04:50:54;;;;;;;2.50;1.35;;;21.60;75.10;;;;;;5054417;28;20155;-71
2023/07/10 04:53:21;;;;;;;1.30;0.98;;;21.60;75.10;;;;;;5069675;28;20049;-64
2023/07/10 04:55:48;;;;;;;4.68;0.90;;;21.50;74.80;;;;;;5071766;28;20501;-68
2023/07/10 04:58:14;;;;;;;1.70;1.35;;;21.40;74.60;;;;;;5069322;28;20039;-68
2023/07/10 05:00:40;;;;;;;1.67;1.20;;;21.40;75.00;;;;;;5071586;28;20048;-72
2023/07/10 05:03:06;;;;;;;1.83;0.60;;;21.40;74.90;;;;;;5073951;28;20031;-68
2023/07/10 05:05:32;;;;;;;1.30;0.85;;;21.40;74.90;;;;;;5073017;28;20072;-67
2023/07/10 05:07:59;;;;;;;1.45;1.33;;;21.40;74.70;;;;;;5067417;28;20029;-67
2023/07/10 05:10:25;;;;;;;2.22;1.45;;;21.40;74.50;;;;;;5071549;28;20484;-70
2023/07/10 05:12:50;;;;;;;1.00;0.80;;;21.40;74.50;;;;;;5075465;28;20035;-71
2023/07/10 05:15:16;;;;;;;0.73;0.70;;;21.40;74.60;;;;;;5077618;28;20052;-71
2023/07/10 05:17:42;;;;;;;1.30;1.13;;;21.50;74.60;;;;;;5070649;28;20135;-66
2023/07/10 05:20:08;;;;;;;1.20;0.68;;;21.50;74.50;;;;;;5078282;28;20020;-75
2023/07/10 05:22:35;;;;;;;1.50;0.93;;;21.40;74.40;;;;;;5077602;28;20235;-66
2023/07/10 05:25:01;;;;;;;1.23;0.93;;;21.40;74.40;;;;;;5071848;28;20486;-67
2023/07/10 05:27:27;;;;;;;1.20;0.85;;;21.40;74.30;;;;;;5074104;28;20038;-67
2023/07/10 05:29:52;;;;;;;0.70;0.50;;;21.30;74.40;;;;;;5073038;28;20033;-72
2023/07/10 05:32:18;;;;;;;0.60;0.60;;;21.30;74.40;;;;;;5071053;28;20394;-67
2023/07/10 05:34:44;;;;;;;0.85;0.85;;;21.30;74.60;;;;;;5059195;28;20046;-75
2023/07/10 05:37:10;;;;;;;0.98;0.80;;;21.40;74.70;;;;;;5081294;28;20032;-74
2023/07/10 05:39:36;;;;;;;1.27;0.88;;;21.40;74.40;;;;;;5075982;28;20028;-74
2023/07/10 05:42:02;;;;;;;2.00;1.20;;;21.40;74.30;;;;;;5071858;28;20090;-75
2023/07/10 05:44:28;;;;;;;6.50;1.50;;;21.40;74.30;;;;;;5065156;28;20029;-74
2023/07/10 05:46:56;;;;;;;3.08;1.13;;;21.40;74.20;;;;;;5068199;28;20063;-61
2023/07/10 05:49:23;;;;;;;1.13;0.63;;;21.30;74.00;;;;;;5074773;28;20089;-69
2023/07/10 05:51:50;;;;;;;0.80;0.65;;;21.30;74.30;;;;;;5073646;28;20028;-67
2023/07/10 05:54:16;;;;;;;1.02;0.82;;;21.20;74.40;;;;;;5074621;28;20035;-65
2023/07/10 05:56:41;;;;;;;2.40;1.10;;;21.30;74.40;;;;;;5078922;28;20111;-71
2023/07/10 05:59:11;;;;;;;1.58;0.70;;;21.30;74.20;;;;;;5078018;28;20546;-71
2023/07/10 06:01:37;;;;;;;0.73;0.70;;;21.30;74.10;;;;;;5077535;28;20044;-68
2023/07/10 06:04:03;;;;;;;1.48;1.17;;;21.30;74.10;;;;;;5072260;28;20485;-61
2023/07/10 06:06:29;;;;;;;0.70;0.70;;;21.30;74.00;;;;;;5074750;28;20046;-70
2023/07/10 06:08:54;;;;;;;2.50;1.13;;;21.30;73.80;;;;;;5070484;28;20048;-67
2023/07/10 06:11:20;;;;;;;1.95;0.65;;;21.40;73.70;;;;;;5075462;28;20032;-68
2023/07/10 06:13:46;;;;;;;1.52;0.70;;;21.40;73.60;;;;;;5075131;28;20370;-68
2023/07/10 06:16:12;;;;;;;1.60;0.88;;;21.50;73.50;;;;;;5069826;28;20441;-68
2023/07/10 06:18:38;;;;;;;1.17;0.70;;;21.70;73.40;;;;;;5073650;28;20033;-70
2023/07/10 06:21:05;;;;;;;1.05;0.65;;;21.80;73.00;;;;;;5079331;28;20042;-69
2023/07/10 06:23:31;;;;;;;1.13;0.90;;;21.80;72.70;;;;;;5073831;28;20456;-68
2023/07/10 06:26:00;;;;;;;0.85;0.68;;;21.90;72.70;;;;;;5074017;28;20071;-68
2023/07/10 06:28:28;;;;;;;1.10;0.90;;;21.80;72.30;;;;;;5068134;28;20025;-68
2023/07/10 06:31:00;;;;;;;2.20;0.50;;;21.80;72.20;;;;;;5077243;28;20028;-68
2023/07/10 06:33:27;;;;;;;1.10;0.90;;;21.80;72.20;;;;;;5069929;28;20112;-66
2023/07/10 06:35:52;;;;;;;2.47;0.60;;;22.00;72.20;;;;;;5073812;28;20029;-66
2023/07/10 06:38:18;;;;;;;2.47;0.93;;;22.00;71.70;;;;;;5071505;28;20123;-68
2023/07/10 06:40:45;;;;;;;1.65;1.13;;;22.10;71.10;;;;;;5063468;28;20042;-67
2023/07/10 06:43:11;;;;;;;2.55;0.52;;;22.20;71.00;;;;;;5073667;28;20066;-67
2023/07/10 06:45:39;;;;;;;9.10;0.80;;;22.20;70.60;;;;;;5073687;28;20032;-66
2023/07/10 06:48:06;;;;;;;0.65;0.60;;;22.30;70.70;;;;;;5073486;28;20025;-70
2023/07/10 06:50:32;;;;;;;0.70;0.70;;;22.40;70.50;;;;;;5075061;28;20029;-66
2023/07/10 06:52:57;;;;;;;4.43;0.98;;;22.50;70.20;;;;;;5073436;28;20031;-68
2023/07/10 06:55:23;;;;;;;2.38;0.60;;;22.60;69.70;;;;;;5076223;28;20488;-68
2023/07/10 06:57:49;;;;;;;0.65;0.65;;;22.60;69.60;;;;;;5073855;28;20509;-64
2023/07/10 07:00:17;;;;;;;2.08;0.75;;;22.70;69.40;;;;;;5066249;28;20449;-68
2023/07/10 07:02:43;;;;;;;5.80;1.48;;;22.70;68.50;;;;;;5069163;28;20514;-62
2023/07/10 07:05:10;;;;;;;1.58;0.80;;;22.70;68.60;;;;;;5076676;28;20021;-68
2023/07/10 07:07:37;;;;;;;1.55;0.95;;;22.70;68.30;;;;;;5065337;28;20028;-66
2023/07/10 07:10:05;;;;;;;4.03;0.60;;;22.80;68.00;;;;;;5069266;28;20079;-66
2023/07/10 07:12:31;;;;;;;1.45;0.80;;;22.90;67.70;;;;;;5076014;28;20033;-67
2023/07/10 07:14:57;;;;;;;0.68;0.68;;;22.90;67.80;;;;;;5064323;28;20028;-69
2023/07/10 07:17:22;;;;;;;3.70;0.68;;;23.00;67.60;;;;;;5074327;28;20463;-72
2023/07/10 07:19:48;;;;;;;1.58;0.77;;;23.00;66.20;;;;;;5071267;28;20032;-64
2023/07/10 07:22:14;;;;;;;1.15;0.40;;;23.00;66.40;;;;;;5070026;28;20441;-64
2023/07/10 07:24:40;;;;;;;0.52;0.50;;;23.10;66.70;;;;;;5075314;28;20031;-61
2023/07/10 07:27:06;;;;;;;0.73;0.73;;;23.30;66.80;;;;;;5075766;28;20028;-60
2023/07/10 07:29:32;;;;;;;0.90;0.50;;;23.30;65.50;;;;;;5071029;28;20135;-62
2023/07/10 07:31:59;;;;;;;2.40;0.88;;;23.40;65.60;;;;;;5068651;28;20108;-61
2023/07/10 07:34:24;;;;;;;1.10;1.00;;;23.40;65.30;;;;;;5067316;28;20170;-63
2023/07/10 07:36:52;;;;;;;2.03;0.70;;;23.50;64.90;;;;;;5069585;28;20107;-63
2023/07/10 07:39:20;;;;;;;0.70;0.70;;;23.50;64.30;;;;;;5070280;28;20024;-63
2023/07/10 07:41:46;;;;;;;0.85;0.55;;;23.50;63.50;;;;;;5075559;28;20017;-71
2023/07/10 07:44:12;;;;;;;2.15;0.70;;;23.50;63.50;;;;;;5075238;28;20028;-70
2023/07/10 07:46:38;;;;;;;3.60;0.98;;;23.50;63.70;;;;;;5070972;28;20024;-62
2023/07/10 07:49:04;;;;;;;3.30;1.00;;;23.60;63.40;;;;;;5068135;28;20038;-63
2023/07/10 07:51:30;;;;;;;0.60;0.60;;;23.70;63.40;;;;;;5072061;28;20024;-63
2023/07/10 07:54:14;;;;;;;3.50;0.90;;;23.80;62.90;;;;;;5071331;28;20028;-62
2023/07/10 07:56:40;;;;;;;2.40;0.95;;;23.80;62.60;;;;;;5071698;28;20031;-62
2023/07/10 07:59:06;;;;;;;2.75;1.00;;;23.80;62.50;;;;;;5074046;28;20349;-62
2023/07/10 08:01:32;;;;;;;0.45;0.45;;;23.80;61.80;;;;;;5071479;28;20033;-62
2023/07/10 08:03:57;;;;;;;2.03;0.70;;;23.80;61.90;;;;;;5069654;28;20032;-61
2023/07/10 08:06:28;;;;;;;1.38;0.80;;;23.90;62.40;;;;;;5067384;28;20047;-61
2023/07/10 08:08:54;;;;;;;1.30;0.90;;;23.90;62.40;;;;;;5070344;28;20031;-62
2023/07/10 08:11:20;;;;;;;0.93;0.60;;;24.00;62.50;;;;;;5075850;28;20032;-61
2023/07/10 08:13:46;;;;;;;6.85;1.08;;;24.10;62.30;;;;;;5075972;28;20036;-62
2023/07/10 08:16:12;;;;;;;0.73;0.57;;;24.10;62.20;;;;;;5080781;28;20089;-67
2023/07/10 08:18:40;;;;;;;2.08;0.90;;;24.20;61.50;;;;;;5076361;28;20072;-67
2023/07/10 08:21:08;;;;;;;0.60;0.57;;;24.20;61.80;;;;;;5078400;28;20036;-64
2023/07/10 08:23:33;;;;;;;0.82;0.65;;;24.20;61.80;;;;;;5058663;28;20510;-66
2023/07/10 08:26:00;;;;;;;1.00;0.50;;;24.30;62.10;;;;;;5067593;28;20025;-63
2023/07/10 08:28:26;;;;;;;0.73;0.60;;;24.40;62.00;;;;;;5068637;28;20028;-63
2023/07/10 08:30:52;;;;;;;1.17;0.77;;;24.40;61.90;;;;;;5069872;28;20040;-63
2023/07/10 08:33:17;;;;;;;0.77;0.77;;;24.50;61.90;;;;;;5074286;28;20023;-63
2023/07/10 08:35:43;;;;;;;0.95;0.90;;;24.50;61.30;;;;;;5077936;28;20035;-60
2023/07/10 08:38:09;;;;;;;1.58;0.88;;;24.60;61.00;;;;;;5066381;28;20127;-60
2023/07/10 08:40:37;;;;;;;0.60;0.40;;;24.70;60.90;;;;;;5070160;28;20040;-60
2023/07/10 08:43:21;;;;;;;1.25;0.57;;;24.80;61.00;;;;;;5067608;28;20049;-60
2023/07/10 08:45:48;;;;;;;0.95;0.90;;;24.90;61.10;;;;;;5069536;28;20513;-61
2023/07/10 08:48:36;;;;;;;1.20;0.80;;;24.90;60.90;;;;;;5077583;28;20031;-67
2023/07/10 08:51:20;;;;;;;0.90;0.68;;;25.00;60.70;;;;;;5077409;28;20043;-68
2023/07/10 08:54:13;;;;;;;2.80;1.30;;;25.00;60.20;;;;;;5073890;28;20036;-61
2023/07/10 08:56:54;;;;;;;3.15;0.55;;;25.00;59.80;;;;;;5072485;28;20086;-61
2023/07/10 08:59:38;;;;;;;1.27;0.73;;;24.90;60.40;;;;;;5069327;28;20040;-67
2023/07/10 09:02:24;;;;;;;1.13;0.70;;;24.90;60.60;;;;;;5066091;28;20083;-67
2023/07/10 09:04:50;;;;;;;2.38;0.82;;;25.00;59.90;;;;;;5078455;28;20499;-61
2023/07/10 09:07:19;;;;;;;0.80;0.70;;;25.10;59.80;;;;;;5065341;28;20610;-61
2023/07/10 09:09:51;;;;;;;0.55;0.50;;;25.10;59.90;;;;;;5070763;28;20181;-67
2023/07/10 09:12:41;;;;;;;5.22;1.33;;;25.10;59.60;;;;;;5068686;28;20383;-67
2023/07/10 09:15:15;;;;;;;3.80;0.80;;;25.20;60.10;;;;;;5066259;28;20112;-61
2023/07/10 09:18:04;;;;;;;0.95;0.93;;;25.30;59.10;;;;;;5061788;28;20119;-61
2023/07/10 09:20:30;;;;;;;0.70;0.70;;;25.20;58.30;;;;;;5063912;28;20028;-68
2023/07/10 09:23:10;;;;;;;0.80;0.60;;;25.20;58.90;;;;;;5064778;28;20020;-68
2023/07/10 09:25:37;;;;;;;1.95;0.80;;;25.30;59.10;;;;;;5077431;28;20091;-67
2023/07/10 09:28:03;;;;;;;3.72;0.77;;;25.30;58.50;;;;;;5074891;28;20044;-67
2023/07/10 09:30:43;;;;;;;5.63;1.50;;;25.30;58.70;;;;;;5071113;28;20093;-66
2023/07/10 09:33:09;;;;;;;1.23;1.05;;;25.40;59.20;;;;;;5074774;28;20390;-60
2023/07/10 09:35:39;;;;;;;0.80;0.80;;;25.50;59.30;;;;;;5071885;28;20078;-64
2023/07/10 09:38:05;;;;;;;1.05;0.55;;;25.60;60.00;;;;;;5072457;28;20032;-64
2023/07/10 09:40:45;;;;;;;3.25;1.23;;;25.60;58.90;;;;;;5068800;28;20025;-61
2023/07/10 09:43:19;;;;;;;2.08;1.02;;;25.50;58.80;;;;;;5071176;28;20017;-61
2023/07/10 09:45:48;;;;;;;2.13;0.68;;;25.40;57.60;;;;;;5068991;28;20028;-61
2023/07/10 09:48:33;;;;;;;1.77;0.60;;;25.50;58.20;;;;;;5073128;28;20078;-61
2023/07/10 09:51:09;;;;;;;0.93;0.73;;;25.60;58.20;;;;;;5071284;28;20180;-61
2023/07/10 09:53:45;;;;;;;3.30;0.50;;;25.70;58.00;;;;;;5070777;28;20415;-61
2023/07/10 09:56:23;;;;;;;0.80;0.60;;;25.80;58.00;;;;;;5066926;28;20131;-66
2023/07/10 09:58:55;;;;;;;1.77;0.60;;;26.00;58.10;;;;;;5058713;28;20056;-66
2023/07/10 10:01:31;;;;;;;2.28;1.08;;;26.00;57.90;;;;;;5066299;28;20052;-68
2023/07/10 10:03:57;;;;;;;1.13;0.95;;;26.10;58.00;;;;;;5075636;28;20024;-62
2023/07/10 10:06:26;;;;;;;0.63;0.63;;;26.00;57.70;;;;;;5068631;28;20024;-68
2023/07/10 10:08:53;;;;;;;0.70;0.50;;;26.00;58.20;;;;;;5076154;28;20019;-67
2023/07/10 10:11:31;;;;;;;3.03;0.80;;;26.10;58.00;;;;;;5072296;28;20475;-68
2023/07/10 10:14:00;;;;;;;2.38;0.75;;;26.30;57.30;;;;;;5070399;28;20193;-67
2023/07/10 10:16:49;;;;;;;1.75;1.20;;;26.50;56.50;;;;;;5075375;28;20024;-68
2023/07/10 10:19:23;;;;;;;0.60;0.60;;;26.50;55.40;;;;;;5088896;28;20051;-61
2023/07/10 10:21:48;;;;;;;2.22;0.95;;;26.40;55.20;;;;;;5071856;28;20029;-67
2023/07/10 10:24:14;;;;;;;1.15;0.60;;;26.40;55.30;;;;;;5076633;28;20044;-62
2023/07/10 10:27:09;;;;;;;1.00;1.00;;;26.40;55.60;;;;;;5071945;28;20028;-61
2023/07/10 10:30:07;;;;;;;1.27;0.80;;;26.50;55.30;;;;;;5071662;28;20032;-62
2023/07/10 10:32:44;;;;;;;1.42;0.63;;;26.60;55.10;;;;;;5077929;28;20031;-62
2023/07/10 10:35:34;;;;;;;0.73;0.60;;;26.50;54.50;;;;;;5072163;28;20024;-67
2023/07/10 10:38:20;;;;;;;0.70;0.70;;;26.50;54.30;;;;;;5065241;28;20399;-67
2023/07/10 10:41:04;;;;;;;0.50;0.50;;;26.50;53.30;;;;;;5067189;28;20429;-62
2023/07/10 10:43:42;;;;;;;0.70;0.70;;;26.50;53.90;;;;;;5070453;28;20024;-62
2023/07/10 10:46:37;;;;;;;0.95;0.50;;;26.50;52.70;;;;;;5072395;28;20487;-61
2023/07/10 10:49:23;;;;;;;4.13;1.20;;;26.40;52.90;;;;;;5063674;28;20044;-61
2023/07/10 10:52:08;;;;;;;0.60;0.60;;;26.30;53.20;;;;;;5069055;28;20035;-62
2023/07/10 10:55:09;;;;;;;3.63;1.05;;;26.40;53.30;;;;;;5076684;28;20471;-61
2023/07/10 10:57:47;;;;;;;0.60;0.57;;;26.70;53.20;;;;;;5063726;28;20047;-61
2023/07/10 11:00:33;;;;;;;0.85;0.85;;;26.90;52.70;;;;;;5069238;28;20036;-62
2023/07/10 11:03:45;;;;;;;0.45;0.45;;;27.10;51.90;;;;;;5090532;28;20064;-61
2023/07/10 11:06:41;;;;;;;0.98;0.90;;;27.30;52.10;;;;;;5026962;28;20025;-61
2023/07/10 11:09:13;;;;;;;2.65;0.77;;;27.40;51.60;;;;;;5069829;28;20543;-61
2023/07/10 11:11:40;;;;;;;0.65;0.45;;;27.50;52.00;;;;;;5068026;28;20532;-62
2023/07/10 11:14:06;;;;;;;1.85;0.68;;;27.80;52.10;;;;;;5074233;28;20016;-61
2023/07/10 11:16:34;;;;;;;4.13;0.98;;;28.00;52.10;;;;;;5064019;28;20035;-62
2023/07/10 11:19:02;;;;;;;2.35;1.33;;;28.10;51.80;;;;;;5060632;28;20475;-68
2023/07/10 11:21:29;;;;;;;0.75;0.70;;;27.90;51.30;;;;;;5060106;28;20158;-61
2023/07/10 11:23:55;;;;;;;2.10;1.33;;;27.90;51.20;;;;;;5077897;28;20040;-67
2023/07/10 11:26:24;;;;;;;3.85;1.30;;;27.80;50.00;;;;;;5064728;28;20043;-67
2023/07/10 11:28:52;;;;;;;1.45;0.47;;;27.80;50.00;;;;;;5069212;28;20027;-61
2023/07/10 11:31:18;;;;;;;0.43;0.43;;;27.90;50.70;;;;;;5060758;28;20060;-61
2023/07/10 11:33:44;;;;;;;3.08;1.02;;;27.90;50.40;;;;;;5063695;28;20067;-68
2023/07/10 11:36:17;;;;;;;3.63;0.60;;;27.80;50.90;;;;;;5072494;28;20032;-61
2023/07/10 11:39:04;;;;;;;0.65;0.45;;;27.60;51.30;;;;;;5060410;28;20074;-61
2023/07/10 11:41:32;;;;;;;1.73;0.85;;;27.40;50.50;;;;;;5087071;28;20039;-67
2023/07/10 11:44:20;;;;;;;1.02;0.50;;;27.20;50.60;;;;;;5069508;28;20017;-61
2023/07/10 11:47:01;;;;;;;5.20;0.85;;;27.20;51.30;;;;;;5064004;28;20052;-61
2023/07/10 11:49:28;;;;;;;0.88;0.82;;;27.50;50.60;;;;;;5062491;28;20032;-61
2023/07/10 11:52:09;;;;;;;0.60;0.60;;;27.80;50.70;;;;;;5064291;28;20032;-67
2023/07/10 11:54:34;;;;;;;1.98;0.82;;;28.30;50.80;;;;;;5051721;28;20036;-61
2023/07/10 11:57:09;;;;;;;2.15;1.08;;;28.60;50.10;;;;;;5054302;28;20035;-61
2023/07/10 11:59:44;;;;;;;1.60;0.85;;;28.70;49.60;;;;;;5053253;28;20637;-61
2023/07/10 12:02:27;;;;;;;1.00;0.75;;;28.50;49.60;;;;;;5070040;28;20500;-68
2023/07/10 12:04:54;;;;;;;0.93;0.70;;;28.40;49.40;;;;;;5065224;28;20052;-67
2023/07/10 12:07:20;;;;;;;1.38;1.08;;;28.20;49.30;;;;;;5069813;28;20034;-67
2023/07/10 12:09:50;;;;;;;0.80;0.80;;;27.90;49.50;;;;;;5069632;28;20445;-68
2023/07/10 12:12:16;;;;;;;3.88;0.93;;;28.00;50.20;;;;;;5069877;28;20040;-62
2023/07/10 12:14:42;;;;;;;0.77;0.65;;;28.20;49.30;;;;;;5067770;28;20036;-68
2023/07/10 12:17:16;;;;;;;17.58;1.02;;;28.40;49.30;;;;;;5067881;28;20100;-68
2023/07/10 12:19:42;;;;;;;1.73;0.85;;;28.50;49.10;;;;;;5065688;28;20035;-68
2023/07/10 12:22:20;;;;;;;0.85;0.70;;;28.50;49.40;;;;;;5070625;28;20075;-61
2023/07/10 12:24:54;;;;;;;0.65;0.45;;;28.30;49.10;;;;;;5071969;28;20027;-62
2023/07/10 12:27:21;;;;;;;1.48;0.60;;;28.30;49.50;;;;;;5074027;28;20609;-63
2023/07/10 12:29:51;;;;;;;4.03;1.33;;;28.40;49.20;;;;;;5075026;28;20056;-63
2023/07/10 12:32:18;;;;;;;1.67;0.98;;;28.30;47.70;;;;;;5072312;28;20399;-60
2023/07/10 12:34:45;;;;;;;2.20;0.80;;;28.30;48.50;;;;;;5053470;28;20028;-61
2023/07/10 12:37:14;;;;;;;1.95;0.98;;;28.40;48.70;;;;;;5066007;28;20037;-67
2023/07/10 12:39:42;;;;;;;1.10;0.70;;;28.60;48.70;;;;;;5063192;28;20115;-61
2023/07/10 12:42:36;;;;;;;3.08;1.15;;;28.90;48.20;;;;;;5074155;28;20028;-67
2023/07/10 12:45:07;;;;;;;0.85;0.82;;;29.10;48.00;;;;;;5069069;28;20036;-67
2023/07/10 12:47:34;;;;;;;2.95;0.90;;;29.40;48.60;;;;;;5065944;28;20044;-67
2023/07/10 12:50:01;;;;;;;3.40;0.95;;;29.70;47.90;;;;;;5068512;28;20040;-67
2023/07/10 12:52:34;;;;;;;0.50;0.47;;;29.90;48.30;;;;;;5073645;28;20504;-67
2023/07/10 12:55:03;;;;;;;1.20;0.50;;;29.90;47.50;;;;;;5072691;28;20024;-61
2023/07/10 12:57:34;;;;;;;2.25;1.38;;;29.70;47.10;;;;;;5070358;28;20020;-67
2023/07/10 13:00:05;;;;;;;2.40;1.20;;;29.30;47.30;;;;;;5073306;28;20036;-67
2023/07/10 13:02:36;;;;;;;;;;;28.90;48.40;;;;;;5080921;28;20367;-61